sensor_id;sensor_type;location;lat;lon;timestamp;pressure;altitude;pressure_sealevel;temperature
31921;BMP280;66485;52.128;4.436;2023-03-12T00:02:04;101159.94;;;16.86
31921;BMP280;66485;52.128;4.436;2023-03-12T00:04:30;101153.00;;;16.85
31921;BMP280;66485;52.128;4.436;2023-03-12T00:06:56;101156.91;;;16.81
31921;BMP280;66485;52.128;4.436;2023-03-12T00:09:21;101156.91;;;16.81
31921;BMP280;66485;52.128;4.436;2023-03-12T00:11:47;101156.47;;;16.86
31921;BMP280;66485;52.128;4.436;2023-03-12T00:14:13;101156.47;;;16.86
31921;BMP280;66485;52.128;4.436;2023-03-12T00:16:38;101153.00;;;16.89
31921;BMP280;66485;52.128;4.436;2023-03-12T00:19:03;101136.00;;;16.88
31921;BMP280;66485;52.128;4.436;2023-03-12T00:21:29;101133.28;;;16.88
31921;BMP280;66485;52.128;4.436;2023-03-12T00:23:54;101127.09;;;16.91
31921;BMP280;66485;52.128;4.436;2023-03-12T00:26:20;101127.09;;;16.91
31921;BMP280;66485;52.128;4.436;2023-03-12T00:28:47;101137.13;;;16.94
31921;BMP280;66485;52.128;4.436;2023-03-12T00:31:23;101125.53;;;16.94
31921;BMP280;66485;52.128;4.436;2023-03-12T00:33:51;101114.28;;;16.95
31921;BMP280;66485;52.128;4.436;2023-03-12T00:36:18;101113.53;;;16.95
31921;BMP280;66485;52.128;4.436;2023-03-12T00:38:43;101113.53;;;16.95
31921;BMP280;66485;52.128;4.436;2023-03-12T00:41:09;101112.41;;;16.92
31921;BMP280;66485;52.128;4.436;2023-03-12T00:43:34;101112.41;;;16.92
31921;BMP280;66485;52.128;4.436;2023-03-12T00:46:00;101100.81;;;16.92
31921;BMP280;66485;52.128;4.436;2023-03-12T00:48:25;101102.75;;;16.91
31921;BMP280;66485;52.128;4.436;2023-03-12T00:50:51;101088.44;;;16.87
31921;BMP280;66485;52.128;4.436;2023-03-12T00:53:16;101098.13;;;16.85
31921;BMP280;66485;52.128;4.436;2023-03-12T00:55:41;101102.03;;;16.80
31921;BMP280;66485;52.128;4.436;2023-03-12T00:58:07;101102.03;;;16.80
31921;BMP280;66485;52.128;4.436;2023-03-12T01:00:32;101113.25;;;16.75
31921;BMP280;66485;52.128;4.436;2023-03-12T01:02:57;101108.97;;;16.81
31921;BMP280;66485;52.128;4.436;2023-03-12T01:05:23;101117.06;;;16.85
31921;BMP280;66485;52.128;4.436;2023-03-12T01:07:49;101116.66;;;16.86
31921;BMP280;66485;52.128;4.436;2023-03-12T01:10:16;101100.41;;;16.90
31921;BMP280;66485;52.128;4.436;2023-03-12T01:12:42;101102.75;;;16.91
31921;BMP280;66485;52.128;4.436;2023-03-12T01:15:10;101102.75;;;16.91
31921;BMP280;66485;52.128;4.436;2023-03-12T01:17:36;101096.94;;;16.93
31921;BMP280;66485;52.128;4.436;2023-03-12T01:20:02;101098.09;;;16.92
31921;BMP280;66485;52.128;4.436;2023-03-12T01:22:27;101094.25;;;16.86
31921;BMP280;66485;52.128;4.436;2023-03-12T01:24:53;101088.06;;;16.89
31921;BMP280;66485;52.128;4.436;2023-03-12T01:27:18;101083.41;;;16.89
31921;BMP280;66485;52.128;4.436;2023-03-12T01:29:44;101079.56;;;16.90
31921;BMP280;66485;52.128;4.436;2023-03-12T01:32:09;101075.69;;;16.91
31921;BMP280;66485;52.128;4.436;2023-03-12T01:34:35;101066.03;;;16.90
31921;BMP280;66485;52.128;4.436;2023-03-12T01:37:01;101069.84;;;16.96
31921;BMP280;66485;52.128;4.436;2023-03-12T01:39:26;101061.72;;;16.96
31921;BMP280;66485;52.128;4.436;2023-03-12T01:41:53;101059.78;;;16.97
31921;BMP280;66485;52.128;4.436;2023-03-12T01:44:18;101062.50;;;16.97
31921;BMP280;66485;52.128;4.436;2023-03-12T01:46:44;101057.84;;;16.97
31921;BMP280;66485;52.128;4.436;2023-03-12T01:56:55;101044.72;;;16.96
31921;BMP280;66485;52.128;4.436;2023-03-12T01:59:27;101029.97;;;17.00
31921;BMP280;66485;52.128;4.436;2023-03-12T02:01:55;101026.91;;;16.98
31921;BMP280;66485;52.128;4.436;2023-03-12T02:04:22;101018.41;;;17.00
31921;BMP280;66485;52.128;4.436;2023-03-12T02:06:58;101016.88;;;16.99
31921;BMP280;66485;52.128;4.436;2023-03-12T02:09:25;101016.88;;;16.99
31921;BMP280;66485;52.128;4.436;2023-03-12T02:11:51;101002.56;;;16.98
31921;BMP280;66485;52.128;4.436;2023-03-12T02:14:16;100994.06;;;16.96
31921;BMP280;66485;52.128;4.436;2023-03-12T02:16:43;100994.06;;;16.96
31921;BMP280;66485;52.128;4.436;2023-03-12T02:19:16;100989.06;;;16.95
31921;BMP280;66485;52.128;4.436;2023-03-12T02:21:42;100985.63;;;16.91
31921;BMP280;66485;52.128;4.436;2023-03-12T02:26:44;100979.81;;;16.92
31921;BMP280;66485;52.128;4.436;2023-03-12T02:29:10;100981.00;;;16.88
31921;BMP280;66485;52.128;4.436;2023-03-12T02:31:41;100981.00;;;16.88
31921;BMP280;66485;52.128;4.436;2023-03-12T02:34:07;100981.00;;;16.88
31921;BMP280;66485;52.128;4.436;2023-03-12T02:36:34;100981.38;;;16.93
31921;BMP280;66485;52.128;4.436;2023-03-12T02:38:59;100980.59;;;16.93
31921;BMP280;66485;52.128;4.436;2023-03-12T02:41:39;100979.44;;;16.94
31921;BMP280;66485;52.128;4.436;2023-03-12T02:44:24;100979.44;;;16.94
31921;BMP280;66485;52.128;4.436;2023-03-12T02:46:53;100965.91;;;16.94
31921;BMP280;66485;52.128;4.436;2023-03-12T02:49:20;100956.25;;;16.93
31921;BMP280;66485;52.128;4.436;2023-03-12T02:51:46;100956.25;;;16.93
31921;BMP280;66485;52.128;4.436;2023-03-12T02:54:13;100955.06;;;16.94
31921;BMP280;66485;52.128;4.436;2023-03-12T02:56:39;100947.72;;;16.94
31921;BMP280;66485;52.128;4.436;2023-03-12T02:59:05;100949.25;;;16.95
31921;BMP280;66485;52.128;4.436;2023-03-12T03:01:31;100945.81;;;16.91
31921;BMP280;66485;52.128;4.436;2023-03-12T03:04:00;100945.81;;;16.91
31921;BMP280;66485;52.128;4.436;2023-03-12T03:06:26;100939.66;;;16.87
31921;BMP280;66485;52.128;4.436;2023-03-12T03:08:51;100925.72;;;16.89
31921;BMP280;66485;52.128;4.436;2023-03-12T03:11:17;100925.72;;;16.89
31921;BMP280;66485;52.128;4.436;2023-03-12T03:13:43;100926.94;;;16.84
31921;BMP280;66485;52.128;4.436;2023-03-12T03:16:09;100922.31;;;16.81
31921;BMP280;66485;52.128;4.436;2023-03-12T03:18:36;100913.03;;;16.82
31921;BMP280;66485;52.128;4.436;2023-03-12T03:21:04;100913.03;;;16.82
31921;BMP280;66485;52.128;4.436;2023-03-12T03:23:31;100904.97;;;16.75
31921;BMP280;66485;52.128;4.436;2023-03-12T03:25:56;100904.97;;;16.75
31921;BMP280;66485;52.128;4.436;2023-03-12T03:28:24;100906.09;;;16.81
31921;BMP280;66485;52.128;4.436;2023-03-12T03:30:54;100903.41;;;16.81
31921;BMP280;66485;52.128;4.436;2023-03-12T03:33:22;100903.41;;;16.81
31921;BMP280;66485;52.128;4.436;2023-03-12T03:35:48;100887.94;;;16.82
31921;BMP280;66485;52.128;4.436;2023-03-12T03:38:14;100881.00;;;16.77
31921;BMP280;66485;52.128;4.436;2023-03-12T03:40:40;100881.00;;;16.77
31921;BMP280;66485;52.128;4.436;2023-03-12T03:43:05;100878.59;;;16.86
31921;BMP280;66485;52.128;4.436;2023-03-12T03:45:30;100873.16;;;16.90
31921;BMP280;66485;52.128;4.436;2023-03-12T03:47:56;100873.16;;;16.90
31921;BMP280;66485;52.128;4.436;2023-03-12T03:50:21;100859.31;;;16.84
31921;BMP280;66485;52.128;4.436;2023-03-12T03:52:47;100859.31;;;16.84
31921;BMP280;66485;52.128;4.436;2023-03-12T03:55:12;100853.91;;;16.84
31921;BMP280;66485;52.128;4.436;2023-03-12T03:57:37;100846.13;;;16.86
31921;BMP280;66485;52.128;4.436;2023-03-12T04:00:03;100841.88;;;16.85
31921;BMP280;66485;52.128;4.436;2023-03-12T04:02:34;100852.38;;;16.83
31921;BMP280;66485;52.128;4.436;2023-03-12T04:05:00;100854.31;;;16.83
31921;BMP280;66485;52.128;4.436;2023-03-12T04:07:26;100850.44;;;16.84
31921;BMP280;66485;52.128;4.436;2023-03-12T04:09:52;100847.75;;;16.80
31921;BMP280;66485;52.128;4.436;2023-03-12T04:12:17;100850.81;;;16.82
31921;BMP280;66485;52.128;4.436;2023-03-12T04:14:43;100842.41;;;16.73
31921;BMP280;66485;52.128;4.436;2023-03-12T04:17:08;100848.94;;;16.76
31921;BMP280;66485;52.128;4.436;2023-03-12T04:19:34;100850.16;;;16.71
31921;BMP280;66485;52.128;4.436;2023-03-12T04:22:00;100840.81;;;16.76
31921;BMP280;66485;52.128;4.436;2023-03-12T04:24:25;100840.81;;;16.76
31921;BMP280;66485;52.128;4.436;2023-03-12T04:26:50;100826.53;;;16.75
31921;BMP280;66485;52.128;4.436;2023-03-12T04:29:17;100826.53;;;16.75
31921;BMP280;66485;52.128;4.436;2023-03-12T04:31:43;100809.91;;;16.77
31921;BMP280;66485;52.128;4.436;2023-03-12T04:34:09;100805.34;;;16.70
31921;BMP280;66485;52.128;4.436;2023-03-12T04:36:34;100792.19;;;16.72
31921;BMP280;66485;52.128;4.436;2023-03-12T04:38:59;100782.16;;;16.73
31921;BMP280;66485;52.128;4.436;2023-03-12T04:41:25;100789.88;;;16.71
31921;BMP280;66485;52.128;4.436;2023-03-12T04:43:50;100789.88;;;16.71
31921;BMP280;66485;52.128;4.436;2023-03-12T04:46:15;100794.50;;;16.74
31921;BMP280;66485;52.128;4.436;2023-03-12T04:48:40;100788.66;;;16.79
31921;BMP280;66485;52.128;4.436;2023-03-12T04:51:06;100793.66;;;16.80
31921;BMP280;66485;52.128;4.436;2023-03-12T04:53:31;100793.66;;;16.80
31921;BMP280;66485;52.128;4.436;2023-03-12T04:55:57;100792.56;;;16.74
31921;BMP280;66485;52.128;4.436;2023-03-12T04:58:22;100791.03;;;16.73
31921;BMP280;66485;52.128;4.436;2023-03-12T05:00:48;100791.03;;;16.73
31921;BMP280;66485;52.128;4.436;2023-03-12T05:03:14;100794.44;;;16.77
31921;BMP280;66485;52.128;4.436;2023-03-12T05:05:40;100788.28;;;16.77
31921;BMP280;66485;52.128;4.436;2023-03-12T05:08:05;100788.28;;;16.77
31921;BMP280;66485;52.128;4.436;2023-03-12T05:10:31;100784.03;;;16.79
31921;BMP280;66485;52.128;4.436;2023-03-12T05:12:56;100783.59;;;16.81
31921;BMP280;66485;52.128;4.436;2023-03-12T05:15:22;100783.59;;;16.81
31921;BMP280;66485;52.128;4.436;2023-03-12T05:17:47;100774.38;;;16.75
31921;BMP280;66485;52.128;4.436;2023-03-12T05:20:12;100784.13;;;16.69
31921;BMP280;66485;52.128;4.436;2023-03-12T05:22:38;100784.09;;;16.72
31921;BMP280;66485;52.128;4.436;2023-03-12T05:25:04;100784.91;;;16.65
31921;BMP280;66485;52.128;4.436;2023-03-12T05:27:30;100788.75;;;16.68
31921;BMP280;66485;52.128;4.436;2023-03-12T05:29:55;100786.44;;;16.66
31921;BMP280;66485;52.128;4.436;2023-03-12T05:32:21;100778.28;;;16.74
31921;BMP280;66485;52.128;4.436;2023-03-12T05:34:46;100776.03;;;16.69
31921;BMP280;66485;52.128;4.436;2023-03-12T05:37:12;100775.31;;;16.61
31921;BMP280;66485;52.128;4.436;2023-03-12T05:39:38;100773.00;;;16.59
31921;BMP280;66485;52.128;4.436;2023-03-12T05:42:03;100772.16;;;16.66
31921;BMP280;66485;52.128;4.436;2023-03-12T05:44:29;100777.56;;;16.66
31921;BMP280;66485;52.128;4.436;2023-03-12T05:46:54;100769.81;;;16.68
31921;BMP280;66485;52.128;4.436;2023-03-12T05:49:20;100770.97;;;16.71
31921;BMP280;66485;52.128;4.436;2023-03-12T05:51:46;100770.97;;;16.71
31921;BMP280;66485;52.128;4.436;2023-03-12T05:54:12;100765.97;;;16.69
31921;BMP280;66485;52.128;4.436;2023-03-12T05:56:37;100765.97;;;16.69
31921;BMP280;66485;52.128;4.436;2023-03-12T05:59:03;100771.38;;;16.69
31921;BMP280;66485;52.128;4.436;2023-03-12T06:01:29;100771.38;;;16.69
31921;BMP280;66485;52.128;4.436;2023-03-12T06:03:55;100768.28;;;16.67
31921;BMP280;66485;52.128;4.436;2023-03-12T06:06:21;100769.84;;;16.64
31921;BMP280;66485;52.128;4.436;2023-03-12T06:08:47;100761.38;;;16.62
31921;BMP280;66485;52.128;4.436;2023-03-12T06:11:13;100761.38;;;16.62
31921;BMP280;66485;52.128;4.436;2023-03-12T06:13:39;100762.22;;;16.56
31921;BMP280;66485;52.128;4.436;2023-03-12T06:16:13;100752.94;;;16.57
31921;BMP280;66485;52.128;4.436;2023-03-12T06:18:40;100756.44;;;16.54
31921;BMP280;66485;52.128;4.436;2023-03-12T06:21:10;100756.44;;;16.54
31921;BMP280;66485;52.128;4.436;2023-03-12T06:23:36;100735.19;;;16.56
31921;BMP280;66485;52.128;4.436;2023-03-12T06:26:02;100732.47;;;16.56
31921;BMP280;66485;52.128;4.436;2023-03-12T06:28:27;100724.00;;;16.57
31921;BMP280;66485;52.128;4.436;2023-03-12T06:30:54;100727.13;;;16.52
31921;BMP280;66485;52.128;4.436;2023-03-12T06:33:20;100724.09;;;16.47
31921;BMP280;66485;52.128;4.436;2023-03-12T06:35:45;100714.78;;;16.51
31921;BMP280;66485;52.128;4.436;2023-03-12T06:38:10;100714.78;;;16.51
31921;BMP280;66485;52.128;4.436;2023-03-12T06:40:36;100716.25;;;16.56
31921;BMP280;66485;52.128;4.436;2023-03-12T06:43:01;100706.97;;;16.57
31921;BMP280;66485;52.128;4.436;2023-03-12T06:45:26;100710.47;;;16.57
31921;BMP280;66485;52.128;4.436;2023-03-12T06:47:51;100710.47;;;16.57
31921;BMP280;66485;52.128;4.436;2023-03-12T06:50:17;100701.56;;;16.57
31921;BMP280;66485;52.128;4.436;2023-03-12T06:52:42;100701.56;;;16.57
31921;BMP280;66485;52.128;4.436;2023-03-12T06:55:08;100716.66;;;16.58
31921;BMP280;66485;52.128;4.436;2023-03-12T06:57:33;100716.66;;;16.58
31921;BMP280;66485;52.128;4.436;2023-03-12T06:59:59;100722.41;;;16.60
31921;BMP280;66485;52.128;4.436;2023-03-12T07:02:24;100727.78;;;16.63
31921;BMP280;66485;52.128;4.436;2023-03-12T07:04:49;100732.75;;;16.65
31921;BMP280;66485;52.128;4.436;2023-03-12T07:07:14;100721.94;;;16.65
31921;BMP280;66485;52.128;4.436;2023-03-12T07:09:41;100721.94;;;16.65
31921;BMP280;66485;52.128;4.436;2023-03-12T07:12:07;100716.13;;;16.66
31921;BMP280;66485;52.128;4.436;2023-03-12T07:14:32;100730.06;;;16.65
31921;BMP280;66485;52.128;4.436;2023-03-12T07:16:57;100731.59;;;16.66
31921;BMP280;66485;52.128;4.436;2023-03-12T07:19:26;100731.59;;;16.66
31921;BMP280;66485;52.128;4.436;2023-03-12T07:21:51;100729.25;;;16.68
31921;BMP280;66485;52.128;4.436;2023-03-12T07:24:17;100728.13;;;16.65
31921;BMP280;66485;52.128;4.436;2023-03-12T07:26:42;100730.81;;;16.65
31921;BMP280;66485;52.128;4.436;2023-03-12T07:29:08;100730.06;;;16.69
31921;BMP280;66485;52.128;4.436;2023-03-12T07:31:33;100721.94;;;16.69
31921;BMP280;66485;52.128;4.436;2023-03-12T07:33:58;100721.59;;;16.63
31921;BMP280;66485;52.128;4.436;2023-03-12T07:36:24;100727.34;;;16.65
31921;BMP280;66485;52.128;4.436;2023-03-12T07:38:49;100725.00;;;16.67
31921;BMP280;66485;52.128;4.436;2023-03-12T07:41:14;100727.78;;;16.63
31921;BMP280;66485;52.128;4.436;2023-03-12T07:43:40;100727.00;;;16.63
31921;BMP280;66485;52.128;4.436;2023-03-12T07:46:05;100728.94;;;16.62
31921;BMP280;66485;52.128;4.436;2023-03-12T07:48:30;100746.69;;;16.63
31921;BMP280;66485;52.128;4.436;2023-03-12T07:50:56;100743.22;;;16.63
31921;BMP280;66485;52.128;4.436;2023-03-12T07:53:21;100743.22;;;16.63
31921;BMP280;66485;52.128;4.436;2023-03-12T07:55:47;100741.25;;;16.67
31921;BMP280;66485;52.128;4.436;2023-03-12T07:58:13;100728.84;;;16.70
31921;BMP280;66485;52.128;4.436;2023-03-12T08:00:39;100728.84;;;16.70
31921;BMP280;66485;52.128;4.436;2023-03-12T08:03:05;100745.06;;;16.73
31921;BMP280;66485;52.128;4.436;2023-03-12T08:05:30;100745.81;;;16.74
31921;BMP280;66485;52.128;4.436;2023-03-12T08:07:56;100741.22;;;16.71
31921;BMP280;66485;52.128;4.436;2023-03-12T08:10:21;100748.16;;;16.72
31921;BMP280;66485;52.128;4.436;2023-03-12T08:12:47;100738.81;;;16.76
31921;BMP280;66485;52.128;4.436;2023-03-12T08:15:13;100738.81;;;16.76
31921;BMP280;66485;52.128;4.436;2023-03-12T08:17:39;100742.75;;;16.72
31921;BMP280;66485;52.128;4.436;2023-03-12T08:20:05;100748.94;;;16.72
31921;BMP280;66485;52.128;4.436;2023-03-12T08:22:34;100746.16;;;16.76
31921;BMP280;66485;52.128;4.436;2023-03-12T08:24:59;100746.16;;;16.76
31921;BMP280;66485;52.128;4.436;2023-03-12T08:27:24;100749.31;;;16.71
31921;BMP280;66485;52.128;4.436;2023-03-12T08:29:50;100753.19;;;16.70
31921;BMP280;66485;52.128;4.436;2023-03-12T08:32:15;100759.38;;;16.70
31921;BMP280;66485;52.128;4.436;2023-03-12T08:34:40;100764.41;;;16.68
31921;BMP280;66485;52.128;4.436;2023-03-12T08:37:06;100764.41;;;16.68
31921;BMP280;66485;52.128;4.436;2023-03-12T08:39:32;100758.69;;;16.62
31921;BMP280;66485;52.128;4.436;2023-03-12T08:41:57;100765.56;;;16.67
31921;BMP280;66485;52.128;4.436;2023-03-12T08:44:23;100765.56;;;16.67
31921;BMP280;66485;52.128;4.436;2023-03-12T08:46:49;100765.97;;;16.69
31921;BMP280;66485;52.128;4.436;2023-03-12T08:49:15;100765.97;;;16.69
31921;BMP280;66485;52.128;4.436;2023-03-12T08:51:41;100769.72;;;16.75
31921;BMP280;66485;52.128;4.436;2023-03-12T08:54:06;100769.72;;;16.75
31921;BMP280;66485;52.128;4.436;2023-03-12T08:56:33;100762.41;;;16.79
31921;BMP280;66485;52.128;4.436;2023-03-12T08:59:00;100761.97;;;16.81
31921;BMP280;66485;52.128;4.436;2023-03-12T09:01:25;100753.84;;;16.81
31921;BMP280;66485;52.128;4.436;2023-03-12T09:03:50;100767.81;;;16.79
31921;BMP280;66485;52.128;4.436;2023-03-12T09:06:19;100761.97;;;16.81
31921;BMP280;66485;52.128;4.436;2023-03-12T09:08:45;100773.22;;;16.76
31921;BMP280;66485;52.128;4.436;2023-03-12T09:11:13;100773.22;;;16.76
31921;BMP280;66485;52.128;4.436;2023-03-12T09:13:39;100771.38;;;16.69
31921;BMP280;66485;52.128;4.436;2023-03-12T09:16:05;100771.38;;;16.69
31921;BMP280;66485;52.128;4.436;2023-03-12T09:18:31;100770.50;;;16.76
31921;BMP280;66485;52.128;4.436;2023-03-12T09:20:57;100775.16;;;16.75
31921;BMP280;66485;52.128;4.436;2023-03-12T09:23:23;100782.47;;;16.78
31921;BMP280;66485;52.128;4.436;2023-03-12T09:25:48;100786.41;;;16.70
31921;BMP280;66485;52.128;4.436;2023-03-12T09:28:14;100782.91;;;16.73
31921;BMP280;66485;52.128;4.436;2023-03-12T09:30:40;100786.41;;;16.70
31921;BMP280;66485;52.128;4.436;2023-03-12T09:33:05;100789.13;;;16.70
31921;BMP280;66485;52.128;4.436;2023-03-12T09:35:31;100787.66;;;16.62
31921;BMP280;66485;52.128;4.436;2023-03-12T09:37:57;100785.97;;;16.75
31921;BMP280;66485;52.128;4.436;2023-03-12T09:40:24;100785.97;;;16.75
31921;BMP280;66485;52.128;4.436;2023-03-12T09:42:53;100793.34;;;17.09
31921;BMP280;66485;52.128;4.436;2023-03-12T09:45:34;100794.97;;;17.33
31921;BMP280;66485;52.128;4.436;2023-03-12T09:48:03;100790.84;;;17.52
31921;BMP280;66485;52.128;4.436;2023-03-12T09:50:37;100796.84;;;17.66
31921;BMP280;66485;52.128;4.436;2023-03-12T09:53:15;100791.56;;;17.83
31921;BMP280;66485;52.128;4.436;2023-03-12T09:55:46;100790.13;;;18.01
31921;BMP280;66485;52.128;4.436;2023-03-12T09:58:17;100791.81;;;18.15
31921;BMP280;66485;52.128;4.436;2023-03-12T10:00:46;100791.81;;;18.15
31921;BMP280;66485;52.128;4.436;2023-03-12T10:05:42;100792.16;;;18.40
31921;BMP280;66485;52.128;4.436;2023-03-12T10:13:34;100800.94;;;18.48
31921;BMP280;66485;52.128;4.436;2023-03-12T10:16:13;100794.16;;;18.60
31921;BMP280;66485;52.128;4.436;2023-03-12T10:19:01;100805.31;;;18.62
31921;BMP280;66485;52.128;4.436;2023-03-12T10:21:58;100803.38;;;18.62
31921;BMP280;66485;52.128;4.436;2023-03-12T10:24:53;100798.72;;;18.63
31921;BMP280;66485;52.128;4.436;2023-03-12T10:27:21;100800.66;;;18.62
31921;BMP280;66485;52.128;4.436;2023-03-12T10:29:49;100797.19;;;18.62
31921;BMP280;66485;52.128;4.436;2023-03-12T10:32:27;100789.44;;;18.64
31921;BMP280;66485;52.128;4.436;2023-03-12T10:34:57;100806.03;;;18.66
31921;BMP280;66485;52.128;4.436;2023-03-12T10:37:27;100813.34;;;18.69
31921;BMP280;66485;52.128;4.436;2023-03-12T10:39:54;100809.44;;;18.70
31921;BMP280;66485;52.128;4.436;2023-03-12T10:42:26;100813.34;;;18.69
31921;BMP280;66485;52.128;4.436;2023-03-12T10:45:00;100823.00;;;18.70
31921;BMP280;66485;52.128;4.436;2023-03-12T10:47:42;100809.38;;;18.73
31921;BMP280;66485;52.128;4.436;2023-03-12T10:50:22;100800.81;;;18.75
31921;BMP280;66485;52.128;4.436;2023-03-12T10:52:50;100814.03;;;18.73
31921;BMP280;66485;52.128;4.436;2023-03-12T10:55:27;100814.03;;;18.73
31921;BMP280;66485;52.128;4.436;2023-03-12T10:57:57;100836.00;;;18.59
31921;BMP280;66485;52.128;4.436;2023-03-12T11:00:25;100854.56;;;18.60
31921;BMP280;66485;52.128;4.436;2023-03-12T11:03:05;100842.63;;;18.58
31921;BMP280;66485;52.128;4.436;2023-03-12T11:05:35;100839.91;;;18.58
31921;BMP280;66485;52.128;4.436;2023-03-12T11:08:20;100839.91;;;18.58
31921;BMP280;66485;52.128;4.436;2023-03-12T11:10:47;100828.28;;;18.57
31921;BMP280;66485;52.128;4.436;2023-03-12T11:16:41;100837.03;;;18.45
31921;BMP280;66485;52.128;4.436;2023-03-12T11:18:59;100843.16;;;18.49
31921;BMP280;66485;52.128;4.436;2023-03-12T11:21:26;100842.09;;;18.43
31921;BMP280;66485;52.128;4.436;2023-03-12T11:29:41;100839.38;;;18.43
31921;BMP280;66485;52.128;4.436;2023-03-12T11:32:15;100839.38;;;18.43
31921;BMP280;66485;52.128;4.436;2023-03-12T11:34:42;100828.47;;;18.46
31921;BMP280;66485;52.128;4.436;2023-03-12T11:46:16;100804.50;;;18.45
31921;BMP280;66485;52.128;4.436;2023-03-12T11:48:54;100805.19;;;18.49
31921;BMP280;66485;52.128;4.436;2023-03-12T11:54:59;100805.66;;;18.44
31921;BMP280;66485;52.128;4.436;2023-03-12T11:56:58;100811.38;;;18.49
31921;BMP280;66485;52.128;4.436;2023-03-12T12:07:27;100790.72;;;18.55
31921;BMP280;66485;52.128;4.436;2023-03-12T12:15:31;100802.41;;;18.72
31921;BMP280;66485;52.128;4.436;2023-03-12T12:20:55;100808.34;;;18.67
31921;BMP280;66485;52.128;4.436;2023-03-12T12:23:57;100803.00;;;18.64
31921;BMP280;66485;52.128;4.436;2023-03-12T12:26:28;100803.00;;;18.64
31921;BMP280;66485;52.128;4.436;2023-03-12T12:31:36;100787.88;;;18.63
31921;BMP280;66485;52.128;4.436;2023-03-12T12:37:31;100769.69;;;18.63
31921;BMP280;66485;52.128;4.436;2023-03-12T12:40:18;100769.69;;;18.63
31921;BMP280;66485;52.128;4.436;2023-03-12T12:45:43;100768.91;;;18.82
31921;BMP280;66485;52.128;4.436;2023-03-12T12:48:47;100768.91;;;18.82
31921;BMP280;66485;52.128;4.436;2023-03-12T12:51:06;100767.56;;;18.71
31921;BMP280;66485;52.128;4.436;2023-03-12T12:54:06;100755.94;;;18.70
31921;BMP280;66485;52.128;4.436;2023-03-12T12:56:53;100755.94;;;18.70
31921;BMP280;66485;52.128;4.436;2023-03-12T13:02:21;100753.66;;;18.69
31921;BMP280;66485;52.128;4.436;2023-03-12T13:04:48;100745.84;;;18.71
31921;BMP280;66485;52.128;4.436;2023-03-12T13:09:44;100751.50;;;18.80
31921;BMP280;66485;52.128;4.436;2023-03-12T13:12:30;100751.50;;;18.80
31921;BMP280;66485;52.128;4.436;2023-03-12T13:15:00;100755.59;;;18.88
31921;BMP280;66485;52.128;4.436;2023-03-12T13:25:40;100758.50;;;19.17
31921;BMP280;66485;52.128;4.436;2023-03-12T13:28:31;100751.69;;;19.25
31921;BMP280;66485;52.128;4.436;2023-03-12T13:34:06;100741.31;;;19.40
31921;BMP280;66485;52.128;4.436;2023-03-12T13:36:35;100752.56;;;19.38
31921;BMP280;66485;52.128;4.436;2023-03-12T13:41:35;100752.06;;;19.43
31921;BMP280;66485;52.128;4.436;2023-03-12T13:47:16;100763.28;;;19.61
31921;BMP280;66485;52.128;4.436;2023-03-12T13:49:54;100763.28;;;19.61
31921;BMP280;66485;52.128;4.436;2023-03-12T13:52:23;100762.94;;;19.76
31921;BMP280;66485;52.128;4.436;2023-03-12T13:55:01;100773.56;;;19.70
31921;BMP280;66485;52.128;4.436;2023-03-12T14:02:55;100770.50;;;19.52
31921;BMP280;66485;52.128;4.436;2023-03-12T14:05:22;100791.06;;;19.53
31921;BMP280;66485;52.128;4.436;2023-03-12T14:08:06;100791.06;;;19.53
31921;BMP280;66485;52.128;4.436;2023-03-12T14:10:56;100794.63;;;19.82
31921;BMP280;66485;52.128;4.436;2023-03-12T14:13:40;100808.97;;;19.83
31921;BMP280;66485;52.128;4.436;2023-03-12T14:16:14;100808.97;;;19.83
31921;BMP280;66485;52.128;4.436;2023-03-12T14:18:42;100796.81;;;19.87
31921;BMP280;66485;52.128;4.436;2023-03-12T14:21:12;100792.75;;;19.95
31921;BMP280;66485;52.128;4.436;2023-03-12T14:23:43;100802.34;;;20.00
31921;BMP280;66485;52.128;4.436;2023-03-12T14:26:19;100792.44;;;19.93
31921;BMP280;66485;52.128;4.436;2023-03-12T14:28:54;100798.00;;;19.70
31921;BMP280;66485;52.128;4.436;2023-03-12T14:31:22;100795.56;;;19.59
31921;BMP280;66485;52.128;4.436;2023-03-12T14:36:20;100794.19;;;19.51
31921;BMP280;66485;52.128;4.436;2023-03-12T14:38:47;100794.19;;;19.51
31921;BMP280;66485;52.128;4.436;2023-03-12T14:41:20;100794.84;;;19.55
31921;BMP280;66485;52.128;4.436;2023-03-12T14:43:51;100794.84;;;19.55
31921;BMP280;66485;52.128;4.436;2023-03-12T14:46:19;100781.13;;;19.46
31921;BMP280;66485;52.128;4.436;2023-03-12T14:48:52;100793.06;;;19.49
31921;BMP280;66485;52.128;4.436;2023-03-12T14:51:24;100790.97;;;19.40
31921;BMP280;66485;52.128;4.436;2023-03-12T14:53:50;100790.97;;;19.40
31921;BMP280;66485;52.128;4.436;2023-03-12T14:56:28;100793.97;;;19.26
31921;BMP280;66485;52.128;4.436;2023-03-12T14:58:56;100795.59;;;19.23
31921;BMP280;66485;52.128;4.436;2023-03-12T15:01:23;100795.59;;;19.23
31921;BMP280;66485;52.128;4.436;2023-03-12T15:03:57;100789.88;;;19.18
31921;BMP280;66485;52.128;4.436;2023-03-12T15:06:33;100783.31;;;19.15
31921;BMP280;66485;52.128;4.436;2023-03-12T15:09:01;100783.31;;;19.15
31921;BMP280;66485;52.128;4.436;2023-03-12T15:11:29;100764.41;;;19.12
31921;BMP280;66485;52.128;4.436;2023-03-12T15:14:03;100764.41;;;19.12
31921;BMP280;66485;52.128;4.436;2023-03-12T15:16:30;100762.59;;;19.05
31921;BMP280;66485;52.128;4.436;2023-03-12T15:18:55;100771.94;;;19.04
31921;BMP280;66485;52.128;4.436;2023-03-12T15:21:21;100771.94;;;19.04
31921;BMP280;66485;52.128;4.436;2023-03-12T15:23:47;100769.72;;;18.99
31921;BMP280;66485;52.128;4.436;2023-03-12T15:29:00;100762.44;;;18.96
31921;BMP280;66485;52.128;4.436;2023-03-12T15:31:26;100762.44;;;18.96
31921;BMP280;66485;52.128;4.436;2023-03-12T15:34:04;100753.22;;;18.90
31921;BMP280;66485;52.128;4.436;2023-03-12T15:36:31;100758.75;;;18.86
31921;BMP280;66485;52.128;4.436;2023-03-12T15:39:02;100758.75;;;18.86
31921;BMP280;66485;52.128;4.436;2023-03-12T15:41:39;100749.13;;;18.82